createdAt,value
2022-09-23T00:01:33.986Z,2.42
2022-09-23T00:04:02.238Z,2.42
2022-09-23T00:06:30.319Z,2.50
2022-09-23T00:08:58.435Z,2.50
2022-09-23T00:11:29.211Z,2.53
2022-09-23T00:13:58.954Z,2.60
2022-09-23T00:16:29.480Z,2.55
2022-09-23T00:18:57.578Z,2.45
2022-09-23T00:21:26.217Z,2.60
2022-09-23T00:23:54.796Z,2.53
2022-09-23T00:26:24.272Z,2.80
2022-09-23T00:28:54.092Z,2.70
2022-09-23T00:31:24.301Z,2.70
2022-09-23T00:33:58.453Z,2.70
2022-09-23T00:36:27.548Z,2.80
2022-09-23T00:38:56.211Z,2.58
2022-09-23T00:41:24.753Z,2.28
2022-09-23T00:43:56.047Z,3.08
2022-09-23T00:46:29.682Z,2.60
2022-09-23T00:49:01.394Z,2.83
2022-09-23T00:51:34.514Z,2.80
2022-09-23T00:54:04.097Z,3.10
2022-09-23T00:56:33.964Z,2.80
2022-09-23T00:59:03.680Z,3.20
2022-09-23T01:01:31.854Z,2.72
2022-09-23T01:04:00.071Z,2.80
2022-09-23T01:06:29.400Z,2.80
2022-09-23T01:08:57.382Z,3.00
2022-09-23T01:11:41.191Z,2.75
2022-09-23T01:14:32.291Z,2.67
2022-09-23T01:17:05.522Z,2.47
2022-09-23T01:20:07.747Z,2.90
2022-09-23T01:22:43.367Z,2.40
2022-09-23T01:25:32.167Z,2.55
2022-09-23T01:28:25.423Z,2.42
2022-09-23T01:30:59.829Z,2.67
2022-09-23T01:33:36.398Z,2.60
2022-09-23T01:36:12.214Z,2.53
2022-09-23T01:38:52.033Z,2.80
2022-09-23T01:41:45.750Z,2.42
2022-09-23T01:44:19.505Z,2.47
2022-09-23T01:46:53.317Z,2.70
2022-09-23T01:49:29.472Z,2.30
2022-09-23T01:52:02.826Z,2.60
2022-09-23T01:54:38.816Z,2.50
2022-09-23T01:57:11.085Z,2.85
2022-09-23T01:59:41.156Z,2.10
2022-09-23T02:02:16.562Z,2.60
2022-09-23T02:04:50.505Z,2.50
2022-09-23T02:07:22.565Z,2.58
2022-09-23T02:09:56.804Z,2.58
2022-09-23T02:12:29.578Z,2.47
2022-09-23T02:15:02.649Z,2.60
2022-09-23T02:17:39.641Z,2.60
2022-09-23T02:20:09.011Z,2.80
2022-09-23T02:22:41.967Z,3.00
2022-09-23T02:25:12.399Z,2.65
2022-09-23T02:27:47.475Z,2.60
2022-09-23T02:30:18.956Z,2.60
2022-09-23T02:32:55.222Z,2.65
2022-09-23T02:35:32.921Z,2.90
2022-09-23T02:38:12.231Z,2.70
2022-09-23T02:40:48.073Z,2.40
2022-09-23T02:43:21.238Z,3.00
2022-09-23T02:45:49.935Z,3.00
2022-09-23T02:48:23.108Z,2.72
2022-09-23T02:50:51.404Z,2.60
2022-09-23T02:53:19.430Z,2.65
2022-09-23T02:55:47.461Z,3.15
2022-09-23T02:58:18.945Z,2.65
2022-09-23T03:00:59.750Z,2.92
2022-09-23T03:03:40.791Z,2.40
2022-09-23T03:06:16.604Z,2.80
2022-09-23T03:08:53.438Z,2.45
2022-09-23T03:11:24.719Z,2.70
2022-09-23T03:14:06.678Z,2.85
2022-09-23T03:16:47.181Z,2.60
2022-09-23T03:19:27.487Z,2.78
2022-09-23T03:22:03.751Z,3.20
2022-09-23T03:24:34.598Z,3.63
2022-09-23T03:27:06.238Z,3.65
2022-09-23T03:29:37.380Z,3.80
2022-09-23T03:32:08.350Z,3.88
2022-09-23T03:34:39.380Z,3.70
2022-09-23T03:37:16.061Z,3.60
2022-09-23T03:39:49.500Z,3.20
2022-09-23T03:42:22.283Z,3.75
2022-09-23T03:44:56.504Z,3.75
2022-09-23T03:47:29.198Z,3.67
2022-09-23T03:50:02.402Z,4.07
2022-09-23T03:52:30.748Z,4.15
2022-09-23T03:54:59.326Z,3.85
2022-09-23T03:57:30.203Z,4.28
2022-09-23T03:59:58.312Z,4.22
2022-09-23T04:02:26.923Z,4.60
2022-09-23T04:04:56.175Z,4.60
2022-09-23T04:07:27.190Z,4.22
2022-09-23T04:09:55.831Z,4.57
2022-09-23T04:12:24.398Z,4.40
2022-09-23T04:14:53.998Z,4.50
2022-09-23T04:17:22.126Z,4.32
2022-09-23T04:19:51.739Z,4.50
2022-09-23T04:22:19.900Z,4.07
2022-09-23T04:24:49.793Z,4.68
2022-09-23T04:27:17.883Z,4.32
2022-09-23T04:29:46.154Z,4.47
2022-09-23T04:32:14.607Z,4.60
2022-09-23T04:34:43.029Z,4.32
2022-09-23T04:37:13.841Z,4.85
2022-09-23T04:39:44.337Z,4.60
2022-09-23T04:42:18.567Z,4.60
2022-09-23T04:44:46.991Z,4.85
2022-09-23T04:47:15.285Z,4.50
2022-09-23T04:49:44.547Z,4.43
2022-09-23T04:52:14.842Z,4.38
2022-09-23T04:54:48.901Z,4.60
2022-09-23T04:57:18.760Z,4.47
2022-09-23T04:59:47.433Z,4.40
2022-09-23T05:02:15.905Z,4.47
2022-09-23T05:04:44.852Z,4.18
2022-09-23T05:07:12.783Z,4.38
2022-09-23T05:09:44.048Z,4.35
2022-09-23T05:12:16.422Z,4.80
2022-09-23T05:14:45.837Z,10.30
2022-09-23T05:17:14.700Z,8.52
2022-09-23T05:19:42.769Z,5.93
2022-09-23T05:22:10.766Z,9.98
2022-09-23T05:24:41.452Z,32.90
2022-09-23T05:27:09.429Z,11.50
2022-09-23T05:29:40.368Z,6.38
2022-09-23T05:32:11.541Z,5.10
2022-09-23T05:34:39.801Z,4.75
2022-09-23T05:37:07.786Z,4.75
2022-09-23T05:39:35.751Z,4.70
2022-09-23T05:45:37.323Z,6.28
2022-09-23T05:48:09.471Z,10.13
2022-09-23T05:50:40.123Z,7.90
2022-09-23T05:53:10.826Z,6.00
2022-09-23T05:55:38.766Z,5.70
2022-09-23T05:58:06.749Z,6.00
2022-09-23T06:00:36.985Z,5.97
2022-09-23T06:03:07.284Z,4.93
2022-09-23T06:05:35.434Z,4.28
2022-09-23T06:08:03.561Z,4.88
2022-09-23T06:10:31.757Z,4.40
2022-09-23T06:13:02.343Z,4.70
2022-09-23T06:15:30.591Z,4.43
2022-09-23T06:18:03.357Z,4.30
2022-09-23T06:20:34.064Z,4.78
2022-09-23T06:23:09.137Z,4.45
2022-09-23T06:25:49.902Z,4.90
2022-09-23T06:28:18.123Z,4.85
2022-09-23T06:30:46.182Z,4.38
2022-09-23T06:33:28.378Z,4.22
2022-09-23T06:36:03.956Z,3.30
2022-09-23T06:38:34.175Z,3.47
2022-09-23T06:41:03.177Z,3.05
2022-09-23T06:43:31.860Z,3.85
2022-09-23T06:46:01.561Z,4.10
2022-09-23T06:48:35.267Z,4.05
2022-09-23T06:51:07.756Z,3.92
2022-09-23T06:53:37.115Z,4.00
2022-09-23T06:56:11.351Z,4.35
2022-09-23T06:58:46.901Z,4.20
2022-09-23T07:01:18.285Z,3.45
2022-09-23T07:03:48.338Z,3.67
2022-09-23T07:06:21.890Z,3.58
2022-09-23T07:12:39.570Z,3.80
2022-09-23T07:15:09.896Z,3.55
2022-09-23T07:17:37.935Z,4.43
2022-09-23T07:20:06.631Z,4.40
2022-09-23T07:22:36.354Z,4.35
2022-09-23T07:25:04.621Z,4.85
2022-09-23T07:27:38.277Z,4.70
2022-09-23T07:30:11.934Z,4.95
2022-09-23T07:32:49.216Z,4.20
2022-09-23T07:35:20.668Z,4.55
2022-09-23T07:37:51.707Z,4.85
2022-09-23T07:40:19.774Z,4.40
2022-09-23T07:42:47.868Z,4.95
2022-09-23T07:45:16.206Z,4.63
2022-09-23T07:47:44.251Z,4.18
2022-09-23T07:50:12.633Z,4.28
2022-09-23T07:52:40.972Z,3.60
2022-09-23T07:55:10.495Z,3.80
2022-09-23T07:57:38.590Z,4.85
2022-09-23T08:00:10.296Z,4.07
2022-09-23T08:02:38.279Z,3.45
2022-09-23T08:05:07.248Z,3.53
2022-09-23T08:07:35.653Z,3.72
2022-09-23T08:10:03.666Z,3.65
2022-09-23T08:12:32.992Z,3.80
2022-09-23T08:15:00.951Z,3.47
2022-09-23T08:17:28.923Z,3.75
2022-09-23T08:19:56.912Z,4.25
2022-09-23T08:22:24.896Z,3.85
2022-09-23T08:24:55.545Z,3.65
2022-09-23T08:27:28.072Z,3.53
2022-09-23T08:29:57.442Z,3.60
2022-09-23T08:32:25.417Z,3.45
2022-09-23T08:34:53.374Z,3.72
2022-09-23T08:37:21.363Z,3.40
2022-09-23T08:39:49.447Z,3.40
2022-09-23T08:42:21.431Z,3.75
2022-09-23T08:44:51.837Z,3.22
2022-09-23T08:47:25.978Z,4.68
2022-09-23T08:50:06.789Z,3.30
2022-09-23T08:52:42.979Z,3.53
2022-09-23T08:55:14.518Z,3.25
2022-09-23T08:58:07.894Z,3.50
2022-09-23T09:00:42.455Z,3.20
2022-09-23T09:03:22.167Z,3.50
2022-09-23T09:05:54.441Z,3.88
2022-09-23T09:08:27.659Z,3.63
2022-09-23T09:10:58.132Z,3.60
2022-09-23T09:13:32.628Z,4.20
2022-09-23T09:16:21.010Z,3.47
2022-09-23T09:18:59.799Z,3.80
2022-09-23T09:21:32.484Z,3.70
2022-09-23T09:24:00.706Z,3.80
2022-09-23T09:26:36.377Z,3.72
2022-09-23T09:29:31.308Z,3.92
2022-09-23T09:32:00.112Z,4.10
2022-09-23T09:34:37.802Z,3.70
2022-09-23T09:37:10.053Z,3.50
2022-09-23T09:39:38.040Z,3.90
2022-09-23T09:42:11.314Z,4.15
2022-09-23T09:44:52.744Z,4.35
2022-09-23T09:47:36.767Z,4.10
2022-09-23T09:50:19.258Z,4.28
2022-09-23T09:52:48.183Z,4.57
2022-09-23T09:55:28.155Z,4.28
2022-09-23T09:58:01.797Z,3.95
2022-09-23T10:00:44.064Z,4.18
2022-09-23T10:03:31.696Z,4.78
2022-09-23T10:06:03.131Z,4.30
2022-09-23T10:08:35.018Z,4.72
2022-09-23T10:11:05.712Z,4.43
2022-09-23T10:13:36.203Z,4.22
2022-09-23T10:16:12.086Z,4.40
2022-09-23T10:19:26.721Z,4.18
2022-09-23T10:22:02.434Z,4.22
2022-09-23T10:24:34.330Z,3.92
2022-09-23T10:27:07.666Z,4.00
2022-09-23T10:29:40.339Z,4.32
2022-09-23T10:32:26.758Z,3.70
2022-09-23T10:34:58.079Z,4.30
2022-09-23T10:37:33.381Z,3.85
2022-09-23T10:40:19.710Z,4.00
2022-09-23T10:43:16.599Z,4.07
2022-09-23T10:46:07.745Z,3.55
2022-09-23T10:48:50.104Z,3.60
2022-09-23T10:51:26.206Z,4.00
2022-09-23T10:54:03.627Z,3.83
2022-09-23T10:56:37.954Z,4.47
2022-09-23T10:59:33.695Z,3.65
2022-09-23T11:02:11.978Z,3.53
2022-09-23T11:04:59.407Z,3.30
2022-09-23T11:07:37.278Z,3.22
2022-09-23T11:10:46.555Z,3.30
2022-09-23T11:13:28.091Z,3.10
2022-09-23T11:16:07.454Z,3.30
2022-09-23T11:18:50.956Z,3.50
2022-09-23T11:21:37.048Z,3.53
2022-09-23T11:24:24.664Z,3.72
2022-09-23T11:27:04.962Z,3.38
2022-09-23T11:30:02.166Z,3.17
2022-09-23T11:32:51.006Z,3.20
2022-09-23T11:35:22.047Z,3.70
2022-09-23T11:37:54.013Z,3.40
2022-09-23T11:40:30.187Z,3.65
2022-09-23T11:43:02.432Z,3.45
2022-09-23T11:45:35.746Z,3.33
2022-09-23T11:48:10.023Z,3.00
2022-09-23T11:50:45.404Z,3.05
2022-09-23T11:53:19.672Z,2.90
2022-09-23T11:55:58.254Z,3.17
2022-09-23T11:58:30.671Z,3.25
2022-09-23T12:01:07.120Z,3.10
2022-09-23T12:03:44.409Z,3.25
2022-09-23T12:06:18.237Z,3.28
2022-09-23T12:08:47.174Z,2.47
2022-09-23T12:11:24.964Z,2.70
2022-09-23T12:14:03.090Z,2.63
2022-09-23T12:17:08.271Z,3.15
2022-09-23T12:19:55.467Z,3.20
2022-09-23T12:22:42.765Z,3.08
2022-09-23T12:25:27.702Z,3.08
2022-09-23T12:28:01.482Z,3.30
2022-09-23T12:30:33.844Z,3.20
2022-09-23T12:33:12.223Z,3.28
2022-09-23T12:35:44.765Z,3.40
2022-09-23T12:38:21.966Z,3.13
2022-09-23T12:40:52.508Z,3.30
2022-09-23T12:43:30.121Z,3.20
2022-09-23T12:46:18.343Z,3.60
2022-09-23T12:49:03.893Z,2.90
2022-09-23T12:51:34.120Z,2.80
2022-09-23T12:54:24.549Z,3.30
2022-09-23T12:57:04.490Z,3.13
2022-09-23T12:59:53.560Z,2.55
2022-09-23T13:02:28.733Z,3.33
2022-09-23T13:05:39.623Z,2.97
2022-09-23T13:08:15.736Z,3.20
2022-09-23T13:10:53.050Z,3.00
2022-09-23T13:13:34.175Z,3.08
2022-09-23T13:16:13.548Z,2.80
2022-09-23T13:18:59.923Z,2.88
2022-09-23T13:22:13.560Z,2.90
2022-09-23T13:24:48.397Z,2.75
2022-09-23T13:27:21.562Z,3.10
2022-09-23T13:29:54.718Z,3.28
2022-09-23T13:32:27.836Z,2.85
2022-09-23T13:34:59.319Z,3.13
2022-09-23T13:37:32.661Z,2.80
2022-09-23T13:40:19.497Z,2.80
2022-09-23T13:42:53.078Z,2.78
2022-09-23T13:45:23.637Z,2.20
2022-09-23T13:47:53.623Z,3.13
2022-09-23T13:50:24.202Z,2.28
2022-09-23T13:52:57.468Z,2.70
2022-09-23T13:55:29.830Z,2.47
2022-09-23T13:58:03.372Z,2.55
2022-09-23T14:00:37.204Z,2.55
2022-09-23T14:03:18.116Z,2.47
2022-09-23T14:05:47.100Z,2.50
2022-09-23T14:08:26.395Z,2.28
2022-09-23T14:10:56.946Z,2.80
2022-09-23T14:13:27.453Z,4.63
2022-09-23T14:15:59.227Z,2.47
2022-09-23T14:18:33.181Z,2.50
2022-09-23T14:21:01.317Z,2.20
2022-09-23T14:23:29.504Z,2.35
2022-09-23T14:26:00.789Z,2.47
2022-09-23T14:28:30.447Z,2.63
2022-09-23T14:31:01.570Z,2.30
2022-09-23T14:33:33.504Z,2.70
2022-09-23T14:36:28.826Z,2.08
2022-09-23T14:39:02.274Z,2.60
2022-09-23T14:41:37.140Z,2.50
2022-09-23T14:44:06.392Z,2.67
2022-09-23T14:46:38.445Z,3.05
2022-09-23T14:49:14.876Z,2.80
2022-09-23T14:51:49.115Z,2.90
2022-09-23T14:54:41.586Z,2.60
2022-09-23T14:57:38.536Z,2.80
2022-09-23T15:00:15.619Z,2.70
2022-09-23T15:02:45.743Z,3.08
2022-09-23T15:05:20.127Z,2.80
2022-09-23T15:07:50.932Z,2.70
2022-09-23T15:10:23.558Z,2.70
2022-09-23T15:12:55.502Z,2.72
2022-09-23T15:15:28.305Z,3.22
2022-09-23T15:17:56.722Z,3.20
2022-09-23T15:20:27.622Z,2.95
2022-09-23T15:22:56.937Z,3.10
2022-09-23T15:25:29.205Z,3.15
2022-09-23T15:28:01.119Z,2.80
2022-09-23T15:30:30.469Z,3.10
2022-09-23T15:32:58.572Z,3.10
2022-09-23T15:35:27.342Z,2.63
2022-09-23T15:38:00.341Z,3.17
2022-09-23T15:40:30.275Z,3.30
2022-09-23T15:43:01.573Z,3.65
2022-09-23T15:45:33.520Z,3.55
2022-09-23T15:48:08.140Z,3.50
2022-09-23T15:50:36.823Z,3.03
2022-09-23T15:53:06.006Z,3.22
2022-09-23T15:55:34.226Z,3.33
2022-09-23T15:58:03.640Z,3.33
2022-09-23T16:00:31.634Z,3.83
2022-09-23T16:02:59.615Z,3.65
2022-09-23T16:05:33.112Z,3.13
2022-09-23T16:08:07.836Z,3.17
2022-09-23T16:10:37.430Z,3.42
2022-09-23T16:13:11.449Z,2.97
2022-09-23T16:15:39.805Z,3.08
2022-09-23T16:18:08.565Z,3.17
2022-09-23T16:20:38.909Z,2.85
2022-09-23T16:23:09.056Z,3.22
2022-09-23T16:25:38.058Z,2.83
2022-09-23T16:28:07.899Z,2.85
2022-09-23T16:30:38.567Z,3.03
2022-09-23T16:33:06.556Z,3.10
2022-09-23T16:35:34.680Z,3.47
2022-09-23T16:38:02.645Z,3.40
2022-09-23T16:40:31.871Z,3.80
2022-09-23T16:43:02.177Z,3.42
2022-09-23T16:45:31.939Z,3.38
2022-09-23T16:47:59.978Z,3.15
2022-09-23T16:50:29.306Z,3.30
2022-09-23T16:52:57.287Z,3.05
2022-09-23T16:55:27.357Z,3.20
2022-09-23T16:57:56.200Z,3.33
2022-09-23T17:00:42.307Z,3.13
2022-09-23T17:03:30.970Z,4.18
2022-09-23T17:06:00.698Z,3.67
2022-09-23T17:08:32.247Z,4.30
2022-09-23T17:11:05.961Z,4.10
2022-09-23T17:13:36.902Z,4.00
2022-09-23T17:16:06.291Z,3.55
2022-09-23T17:18:38.902Z,3.60
2022-09-23T17:21:09.681Z,3.90
2022-09-23T17:23:38.237Z,3.95
2022-09-23T17:26:09.614Z,3.85
2022-09-23T17:28:40.438Z,3.95
2022-09-23T17:31:09.169Z,4.07
2022-09-23T17:33:38.805Z,4.18
2022-09-23T17:36:15.640Z,3.92
2022-09-23T17:38:44.977Z,4.47
2022-09-23T17:41:17.321Z,3.60
2022-09-23T17:43:46.819Z,4.35
2022-09-23T17:50:54.319Z,4.75
2022-09-23T17:53:22.405Z,4.03
2022-09-23T17:55:57.825Z,4.22
2022-09-23T17:58:29.962Z,4.55
2022-09-23T18:00:58.953Z,4.15
2022-09-23T18:03:29.058Z,4.38
2022-09-23T18:06:07.423Z,4.25
2022-09-23T18:08:35.506Z,4.40
2022-09-23T18:11:17.561Z,4.15
2022-09-23T18:13:50.135Z,4.60
2022-09-23T18:16:20.416Z,4.68
2022-09-23T18:18:52.123Z,4.93
2022-09-23T18:21:21.794Z,5.50
2022-09-23T18:23:50.393Z,4.95
2022-09-23T18:26:19.656Z,4.95
2022-09-23T18:28:48.168Z,4.80
2022-09-23T18:31:17.065Z,4.82
2022-09-23T18:33:49.451Z,4.72
2022-09-23T18:36:19.346Z,5.20
2022-09-23T18:38:49.097Z,4.78
2022-09-23T18:41:17.594Z,4.88
2022-09-23T18:43:48.547Z,4.45
2022-09-23T18:46:19.453Z,4.22
2022-09-23T18:49:05.608Z,4.53
2022-09-23T18:51:35.015Z,5.28
2022-09-23T18:54:06.338Z,4.55
2022-09-23T18:56:43.187Z,4.75
2022-09-23T18:59:17.552Z,4.43
2022-09-23T19:01:46.771Z,4.80
2022-09-23T19:04:17.026Z,4.68
2022-09-23T19:06:45.458Z,4.90
2022-09-23T19:09:16.028Z,5.00
2022-09-23T19:11:44.392Z,5.30
2022-09-23T19:14:13.773Z,4.97
2022-09-23T19:16:44.036Z,4.68
2022-09-23T19:19:12.069Z,4.70
2022-09-23T19:21:40.148Z,5.20
2022-09-23T19:24:21.858Z,4.78
2022-09-23T19:26:50.260Z,4.30
2022-09-23T19:29:21.638Z,4.28
2022-09-23T19:31:50.963Z,4.88
2022-09-23T19:34:23.606Z,4.47
2022-09-23T19:36:51.658Z,4.65
2022-09-23T19:39:22.562Z,4.40
2022-09-23T19:41:51.160Z,4.15
2022-09-23T19:44:20.254Z,4.93
2022-09-23T19:46:55.919Z,4.90
2022-09-23T19:49:25.272Z,4.75
2022-09-23T19:51:55.477Z,5.43
2022-09-23T19:54:27.291Z,4.88
2022-09-23T19:56:56.045Z,4.97
2022-09-23T19:59:26.254Z,4.43
2022-09-23T20:01:54.455Z,4.78
2022-09-23T20:04:24.345Z,4.35
2022-09-23T20:06:52.315Z,4.45
2022-09-23T20:09:20.565Z,4.43
2022-09-23T20:11:50.084Z,4.10
2022-09-23T20:14:19.739Z,4.60
2022-09-23T20:16:47.717Z,4.57
2022-09-23T20:19:16.084Z,4.00
2022-09-23T20:21:44.070Z,3.88
2022-09-23T20:24:13.023Z,4.10
2022-09-23T20:26:58.548Z,4.65
2022-09-23T20:29:27.923Z,3.80
2022-09-23T20:31:58.611Z,4.15
2022-09-23T20:34:27.352Z,4.13
2022-09-23T20:36:57.303Z,3.78
2022-09-23T20:39:26.014Z,4.40
2022-09-23T20:41:54.602Z,4.05
2022-09-23T20:44:23.092Z,4.20
2022-09-23T20:46:52.538Z,3.90
2022-09-23T20:49:23.692Z,3.97
2022-09-23T20:51:51.858Z,4.00
2022-09-23T20:54:23.106Z,3.60
2022-09-23T20:56:56.136Z,4.05
2022-09-23T20:59:25.329Z,4.53
2022-09-23T21:01:58.250Z,3.92
2022-09-23T21:04:27.454Z,4.40
2022-09-23T21:06:57.461Z,3.90
2022-09-23T21:09:28.191Z,4.07
2022-09-23T21:11:56.455Z,4.30
2022-09-23T21:14:25.382Z,3.60
2022-09-23T21:16:54.925Z,4.00
2022-09-23T21:19:24.559Z,4.00
2022-09-23T21:21:52.555Z,3.85
2022-09-23T21:27:09.031Z,4.50
2022-09-23T21:29:37.732Z,3.90
2022-09-23T21:32:10.331Z,3.88
2022-09-23T21:34:38.396Z,4.47
2022-09-23T21:37:09.888Z,4.13
2022-09-23T21:39:38.280Z,4.40
2022-09-23T21:42:06.849Z,4.40
2022-09-23T21:44:37.628Z,4.38
2022-09-23T21:47:10.326Z,4.10
2022-09-23T21:49:41.675Z,4.50
2022-09-23T21:52:09.976Z,3.83
2022-09-23T21:54:38.561Z,4.30
2022-09-23T21:57:15.679Z,3.90
2022-09-23T21:59:45.420Z,3.95
2022-09-23T22:02:14.764Z,4.20
2022-09-23T22:04:43.859Z,4.45
2022-09-23T22:07:11.851Z,4.65
2022-09-23T22:09:40.357Z,5.05
2022-09-23T22:12:11.648Z,5.10
2022-09-23T22:14:40.173Z,4.93
2022-09-23T22:17:14.586Z,4.95
2022-09-23T22:19:47.855Z,5.00
2022-09-23T22:22:17.534Z,4.80
2022-09-23T22:24:47.484Z,4.50
2022-09-23T22:27:18.287Z,4.47
2022-09-23T22:30:03.854Z,4.70
2022-09-23T22:32:50.446Z,4.40
2022-09-23T22:35:23.738Z,4.38
2022-09-23T22:37:51.720Z,4.25
2022-09-23T22:40:19.848Z,4.65
2022-09-23T22:42:49.937Z,4.53
2022-09-23T22:45:18.099Z,4.75
2022-09-23T22:47:46.182Z,4.70
2022-09-23T22:50:15.158Z,4.78
2022-09-23T22:52:44.846Z,4.82
2022-09-23T22:55:13.124Z,5.25
2022-09-23T22:57:44.165Z,4.88
2022-09-23T23:00:13.431Z,5.85
2022-09-23T23:02:42.428Z,5.35
2022-09-23T23:05:10.828Z,5.78
2022-09-23T23:07:38.800Z,6.10
2022-09-23T23:10:10.638Z,5.93
2022-09-23T23:12:40.056Z,5.70
2022-09-23T23:15:10.512Z,5.90
2022-09-23T23:17:40.453Z,5.30
2022-09-23T23:20:09.402Z,6.10
2022-09-23T23:22:37.397Z,6.25
2022-09-23T23:25:05.856Z,5.57
2022-09-23T23:27:35.817Z,5.10
2022-09-23T23:30:03.849Z,4.85
2022-09-23T23:32:32.299Z,5.60
2022-09-23T23:35:00.197Z,5.72
2022-09-23T23:37:29.773Z,5.65
2022-09-23T23:39:57.680Z,5.82
2022-09-23T23:42:26.595Z,5.55
2022-09-23T23:44:57.232Z,5.82
2022-09-23T23:47:26.333Z,6.63
2022-09-23T23:49:54.635Z,6.60
2022-09-23T23:52:22.588Z,6.03
2022-09-23T23:54:59.368Z,5.85
2022-09-23T23:57:27.317Z,5.55
2022-09-23T23:59:56.642Z,5.80
